Time;durP1;ratioP1;P1;durP2;ratioP2;P2;SDS_P1;SDS_P2;PMS_P1;PMS_P2;Temp;Humidity;BMP_temperature;BMP_pressure;BME280_temperature;BME280_humidity;BME280_pressure;Samples;Min_cycle;Max_cycle;Signal;HPM_P1;HPM_P2
2023/06/16 00:00:25;;;;;;;7.45;3.83;;;;;17.60;101348.00;;;;10245354;28;20236;-74
2023/06/16 00:05:28;;;;;;;6.95;4.20;;;;;17.50;101338.00;;;;10241370;28;20656;-74
2023/06/16 00:10:30;;;;;;;4.22;3.25;;;;;17.50;101335.00;;;;10241156;28;20643;-76
2023/06/16 00:15:33;;;;;;;5.57;3.55;;;;;17.40;101322.00;;;;10239675;28;20288;-76
2023/06/16 00:20:35;;;;;;;5.50;3.78;;;;;17.40;101324.00;;;;10247590;28;20799;-74
2023/06/16 00:25:38;;;;;;;7.90;3.38;;;;;17.30;101327.00;;;;10241227;28;20202;-73
2023/06/16 00:30:40;;;;;;;5.53;3.60;;;;;17.30;101324.00;;;;10236902;28;20208;-80
2023/06/16 00:35:45;;;;;;;11.55;4.00;;;;;17.20;101322.00;;;;10235945;28;20202;-74
2023/06/16 00:40:47;;;;;;;8.88;4.00;;;;;17.10;101321.00;;;;10231821;28;20252;-74
2023/06/16 00:45:49;;;;;;;6.13;3.57;;;;;17.00;101313.00;;;;10232938;28;20212;-74
2023/06/16 00:50:53;;;;;;;5.50;3.42;;;;;16.90;101306.00;;;;10231492;28;20201;-73
2023/06/16 00:55:57;;;;;;;7.73;3.77;;;;;16.80;101308.00;;;;10239365;28;20557;-80
2023/06/16 01:00:59;;;;;;;6.50;3.70;;;;;16.80;101301.00;;;;10241608;28;20601;-75
2023/06/16 01:06:13;;;;;;;6.83;4.20;;;;;16.80;101301.00;;;;10245371;28;20233;-80
2023/06/16 01:11:33;;;;;;;6.17;3.70;;;;;16.60;101306.00;;;;10239571;28;20205;-74
2023/06/16 01:16:41;;;;;;;5.80;3.63;;;;;16.50;101310.00;;;;10234307;28;20198;-74
2023/06/16 01:21:50;;;;;;;8.17;4.23;;;;;16.30;101304.00;;;;10246321;28;20316;-74
2023/06/16 01:26:54;;;;;;;7.00;3.80;;;;;16.20;101296.00;;;;10249137;28;20375;-75
2023/06/16 01:32:00;;;;;;;6.03;4.43;;;;;16.10;101294.00;;;;10245548;28;20509;-73
2023/06/16 01:37:04;;;;;;;6.67;4.23;;;;;16.00;101288.00;;;;10247100;28;20205;-75
2023/06/16 01:42:07;;;;;;;5.73;4.40;;;;;15.80;101294.00;;;;10237609;28;20280;-80
2023/06/16 01:47:10;;;;;;;5.97;4.10;;;;;15.70;101287.00;;;;10217105;28;20233;-75
2023/06/16 01:52:14;;;;;;;4.57;4.10;;;;;15.60;101288.00;;;;10240738;28;20620;-74
2023/06/16 01:57:16;;;;;;;6.43;3.93;;;;;15.60;101286.00;;;;10230863;28;20207;-75
2023/06/16 02:02:20;;;;;;;7.77;4.23;;;;;15.50;101290.00;;;;10234128;28;20213;-76
2023/06/16 02:07:30;;;;;;;6.30;4.80;;;;;15.30;101291.00;;;;10234219;28;20668;-79
2023/06/16 02:12:33;;;;;;;5.60;4.47;;;;;15.20;101287.00;;;;10236810;28;20197;-76
2023/06/16 02:17:35;;;;;;;8.10;4.60;;;;;15.20;101285.00;;;;10226554;28;20202;-77
2023/06/16 02:22:37;;;;;;;6.47;4.57;;;;;15.20;101283.00;;;;10234111;28;20594;-74
2023/06/16 02:27:40;;;;;;;6.77;4.53;;;;;15.10;101287.00;;;;10247773;28;20664;-74
2023/06/16 02:32:43;;;;;;;8.43;4.33;;;;;15.10;101287.00;;;;10247394;28;20293;-74
2023/06/16 02:38:02;;;;;;;6.87;4.00;;;;;15.20;101289.00;;;;10205599;28;20232;-72
2023/06/16 02:43:04;;;;;;;10.77;4.40;;;;;15.30;101283.00;;;;10246709;28;20236;-74
2023/06/16 02:48:07;;;;;;;7.97;4.60;;;;;15.20;101292.00;;;;10238512;28;20204;-74
2023/06/16 02:53:10;;;;;;;6.53;4.70;;;;;15.00;101289.00;;;;10244012;28;20880;-74
2023/06/16 02:58:13;;;;;;;6.07;4.20;;;;;15.00;101297.00;;;;10241249;28;20197;-74
2023/06/16 03:03:16;;;;;;;8.07;4.80;;;;;14.90;101283.00;;;;10228907;28;20221;-75
2023/06/16 03:08:26;;;;;;;6.57;4.63;;;;;14.80;101293.00;;;;10248628;28;20212;-75
2023/06/16 03:13:28;;;;;;;14.60;5.57;;;;;14.80;101293.00;;;;10215804;28;20744;-74
2023/06/16 03:18:30;;;;;;;6.53;4.83;;;;;14.80;101289.00;;;;10236681;28;20264;-76
2023/06/16 03:23:32;;;;;;;7.73;4.43;;;;;14.80;101295.00;;;;10238627;28;20225;-74
2023/06/16 03:28:35;;;;;;;12.33;6.60;;;;;14.70;101295.00;;;;10248044;28;20293;-74
2023/06/16 03:33:37;;;;;;;6.77;4.60;;;;;14.60;101290.00;;;;10244682;28;20292;-76
2023/06/16 03:38:40;;;;;;;9.27;5.90;;;;;14.60;101301.00;;;;10236909;28;20213;-75
2023/06/16 03:43:42;;;;;;;8.27;5.00;;;;;14.70;101302.00;;;;10243694;28;20236;-76
2023/06/16 03:48:45;;;;;;;10.37;5.50;;;;;14.80;101296.00;;;;10258121;28;20193;-74
2023/06/16 03:53:47;;;;;;;6.43;5.50;;;;;14.90;101297.00;;;;10214339;29;20209;-75
2023/06/16 03:58:50;;;;;;;6.43;5.10;;;;;15.10;101305.00;;;;10220474;28;20257;-74
2023/06/16 04:03:52;;;;;;;6.00;5.40;;;;;15.30;101307.00;;;;10234349;28;20280;-75
2023/06/16 04:08:56;;;;;;;5.53;4.93;;;;;15.70;101315.00;;;;10236169;28;20229;-74
2023/06/16 04:13:59;;;;;;;8.07;5.20;;;;;15.80;101323.00;;;;10210257;28;20205;-75
2023/06/16 04:19:03;;;;;;;7.00;5.70;;;;;15.80;101315.00;;;;10213596;28;20204;-77
2023/06/16 04:24:06;;;;;;;7.30;5.83;;;;;16.00;101320.00;;;;10224798;28;20241;-77
2023/06/16 04:29:14;;;;;;;11.03;5.80;;;;;16.20;101330.00;;;;10237046;28;20280;-76
2023/06/16 04:34:18;;;;;;;5.97;5.37;;;;;16.30;101323.00;;;;10239633;28;20197;-77
2023/06/16 04:39:21;;;;;;;7.90;6.00;;;;;16.40;101324.00;;;;10234686;28;20245;-76
2023/06/16 04:44:24;;;;;;;9.80;6.23;;;;;16.60;101342.00;;;;10242050;28;20222;-77
2023/06/16 04:49:27;;;;;;;7.53;6.03;;;;;16.90;101338.00;;;;10253272;28;20201;-76
2023/06/16 04:54:29;;;;;;;8.43;6.20;;;;;17.00;101332.00;;;;10238206;28;20206;-75
2023/06/16 04:59:32;;;;;;;9.27;6.67;;;;;17.30;101327.00;;;;10225729;28;20732;-77
2023/06/16 05:04:35;;;;;;;12.87;5.97;;;;;17.40;101338.00;;;;10221607;28;20624;-78
2023/06/16 05:09:38;;;;;;;14.70;7.57;;;;;17.60;101341.00;;;;10220223;28;20563;-73
2023/06/16 05:14:40;;;;;;;9.33;6.80;;;;;18.00;101340.00;;;;10223754;28;20209;-75
2023/06/16 05:19:44;;;;;;;12.15;7.32;;;;;18.60;101343.00;;;;10229482;28;20210;-79
2023/06/16 05:24:47;;;;;;;10.88;6.95;;;;;18.50;101349.00;;;;10233631;28;20224;-75
2023/06/16 05:29:53;;;;;;;12.13;7.57;;;;;19.10;101351.00;;;;10232357;28;20206;-75
2023/06/16 05:34:56;;;;;;;9.20;7.40;;;;;19.30;101342.00;;;;10235617;28;20448;-80
2023/06/16 05:39:59;;;;;;;9.43;7.47;;;;;19.40;101347.00;;;;10229877;28;20214;-79
2023/06/16 05:45:01;;;;;;;13.02;7.82;;;;;20.00;101345.00;;;;10237391;28;20226;-76
2023/06/16 05:50:06;;;;;;;8.85;6.75;;;;;20.40;101345.00;;;;10225814;28;20202;-80
2023/06/16 05:55:09;;;;;;;13.20;7.55;;;;;20.60;101338.00;;;;10247551;28;20660;-79
2023/06/16 06:00:18;;;;;;;11.23;7.22;;;;;20.90;101352.00;;;;10236914;28;20212;-79
2023/06/16 06:05:28;;;;;;;9.68;7.30;;;;;21.10;101363.00;;;;10236967;28;20221;-79
2023/06/16 06:10:30;;;;;;;11.35;7.20;;;;;20.90;101367.00;;;;10228803;28;20587;-79
2023/06/16 06:15:34;;;;;;;13.55;7.30;;;;;21.20;101366.00;;;;10238349;28;20256;-79
2023/06/16 06:20:43;;;;;;;9.43;7.20;;;;;22.10;101360.00;;;;10207689;28;20568;-76
2023/06/16 06:25:45;;;;;;;10.23;7.82;;;;;22.40;101365.00;;;;10226777;28;20249;-73
2023/06/16 06:30:52;;;;;;;12.18;7.80;;;;;22.90;101361.00;;;;10238564;28;20197;-74
2023/06/16 06:35:56;;;;;;;9.30;6.97;;;;;23.20;101379.00;;;;10237040;28;20952;-75
2023/06/16 06:40:58;;;;;;;9.05;6.93;;;;;23.30;101380.00;;;;10226342;28;20667;-75
2023/06/16 06:46:01;;;;;;;10.25;8.00;;;;;23.90;101384.00;;;;10236328;28;20201;-78
2023/06/16 06:51:04;;;;;;;11.88;7.95;;;;;24.40;101386.00;;;;10230867;28;20195;-74
2023/06/16 06:56:06;;;;;;;11.82;8.35;;;;;24.70;101394.00;;;;10229218;28;20918;-78
2023/06/16 07:01:08;;;;;;;12.00;8.02;;;;;24.60;101382.00;;;;10230324;28;20217;-79
2023/06/16 07:06:10;;;;;;;13.57;7.45;;;;;24.90;101388.00;;;;10234179;28;20260;-75
2023/06/16 07:11:12;;;;;;;8.30;7.50;;;;;25.30;101388.00;;;;10223886;28;20201;-75
2023/06/16 07:16:15;;;;;;;9.05;7.55;;;;;25.80;101388.00;;;;10230323;28;20592;-76
2023/06/16 07:21:17;;;;;;;9.38;7.88;;;;;26.10;101399.00;;;;10227641;28;20300;-77
2023/06/16 07:26:19;;;;;;;12.73;7.38;;;;;26.10;101402.00;;;;10229787;28;20224;-77
2023/06/16 07:31:21;;;;;;;11.00;7.57;;;;;26.20;101400.00;;;;10217899;28;20692;-77
2023/06/16 07:36:23;;;;;;;7.25;6.15;;;;;26.70;101400.00;;;;10230344;28;20691;-75
2023/06/16 07:41:25;;;;;;;10.35;6.90;;;;;27.20;101399.00;;;;10222183;28;20699;-75
2023/06/16 07:46:28;;;;;;;13.77;7.00;;;;;27.60;101402.00;;;;10225533;28;20718;-74
2023/06/16 07:51:30;;;;;;;8.32;6.63;;;;;27.90;101404.00;;;;10214564;28;20599;-76
2023/06/16 07:56:33;;;;;;;11.75;6.88;;;;;28.10;101410.00;;;;10212621;28;20213;-79
2023/06/16 08:01:35;;;;;;;10.43;6.70;;;;;28.50;101401.00;;;;10228990;28;20222;-74
2023/06/16 08:06:37;;;;;;;15.10;6.40;;;;;28.90;101402.00;;;;10230934;28;20231;-75
2023/06/16 08:11:39;;;;;;;12.32;6.60;;;;;29.30;101394.00;;;;10206594;28;20621;-75
2023/06/16 08:16:42;;;;;;;11.05;7.22;;;;;29.80;101397.00;;;;10221011;28;20549;-75
2023/06/16 08:21:43;;;;;;;8.23;6.57;;;;;30.10;101407.00;;;;10218520;28;20221;-77
2023/06/16 08:26:46;;;;;;;9.88;6.47;;;;;30.50;101399.00;;;;10218127;28;20298;-75
2023/06/16 08:31:48;;;;;;;12.75;5.75;;;;;30.50;101402.00;;;;10204951;28;20206;-76
2023/06/16 08:36:50;;;;;;;13.90;6.32;;;;;30.70;101405.00;;;;10230235;28;20229;-76
2023/06/16 08:41:52;;;;;;;10.18;6.20;;;;;31.00;101400.00;;;;10228661;28;20228;-77
2023/06/16 08:46:56;;;;;;;6.68;5.80;;;;;31.30;101400.00;;;;10216354;28;20205;-77
2023/06/16 08:52:02;;;;;;;7.63;5.20;;;;;31.60;101401.00;;;;10229604;28;20206;-77
2023/06/16 08:57:09;;;;;;;6.60;5.13;;;;;31.30;101397.00;;;;10221167;28;20661;-77
2023/06/16 09:02:12;;;;;;;6.57;5.15;;;;;31.20;101397.00;;;;10223953;28;20261;-77
2023/06/16 09:07:19;;;;;;;8.63;4.75;;;;;31.90;101401.00;;;;10217492;28;20511;-78
2023/06/16 09:12:22;;;;;;;9.60;5.35;;;;;32.40;101395.00;;;;10224927;28;20209;-77
2023/06/16 09:17:27;;;;;;;6.65;5.18;;;;;32.90;101398.00;;;;10219798;28;20221;-78
2023/06/16 09:22:29;;;;;;;6.85;5.05;;;;;33.50;101402.00;;;;10232670;28;20629;-76
2023/06/16 09:27:49;;;;;;;6.63;4.68;;;;;33.60;101406.00;;;;10228725;28;20305;-76
2023/06/16 09:32:54;;;;;;;8.95;4.72;;;;;33.50;101392.00;;;;10227618;28;20575;-76
2023/06/16 09:38:00;;;;;;;8.73;4.75;;;;;33.90;101397.00;;;;10231981;28;20349;-75
2023/06/16 09:43:07;;;;;;;10.88;4.53;;;;;34.20;101398.00;;;;10223584;28;20217;-77
2023/06/16 09:48:11;;;;;;;6.10;4.18;;;;;34.50;101400.00;;;;10230062;28;20289;-78
2023/06/16 09:53:17;;;;;;;6.72;3.92;;;;;34.50;101381.00;;;;10226465;28;20202;-76
2023/06/16 09:58:20;;;;;;;5.38;4.07;;;;;34.50;101386.00;;;;10227966;28;20620;-75
2023/06/16 10:03:39;;;;;;;5.97;4.00;;;;;34.90;101385.00;;;;10231951;28;20541;-75
2023/06/16 10:08:42;;;;;;;5.68;3.55;;;;;35.10;101378.00;;;;10220913;28;20208;-76
2023/06/16 10:13:56;;;;;;;5.68;4.22;;;;;35.30;101382.00;;;;10231523;28;20233;-76
2023/06/16 10:19:01;;;;;;;5.25;3.40;;;;;35.60;101376.00;;;;10236189;28;20260;-76
2023/06/16 10:24:04;;;;;;;5.70;3.38;;;;;35.50;101368.00;;;;10227006;28;20535;-77
2023/06/16 10:29:07;;;;;;;6.82;3.20;;;;;36.10;101362.00;;;;10230881;28;20671;-75
2023/06/16 10:34:18;;;;;;;4.03;2.83;;;;;35.90;101361.00;;;;10228453;28;20569;-78
2023/06/16 10:39:21;;;;;;;5.35;2.80;;;;;35.90;101348.00;;;;10224870;28;20612;-77
2023/06/16 10:44:27;;;;;;;5.68;3.22;;;;;36.30;101348.00;;;;10228600;28;20615;-77
2023/06/16 10:49:29;;;;;;;3.90;3.30;;;;;36.70;101348.00;;;;10228892;28;20283;-79
2023/06/16 10:54:31;;;;;;;3.80;3.05;;;;;36.40;101346.00;;;;10217458;28;20647;-76
2023/06/16 11:00:11;;;;;;;3.53;3.05;;;;;36.90;101355.00;;;;10215861;28;20406;-77
2023/06/16 11:05:14;;;;;;;3.97;3.08;;;;;35.20;101351.00;;;;10225444;28;20344;-76
2023/06/16 11:10:21;;;;;;;6.63;3.10;;;;;35.10;101336.00;;;;10216210;28;20436;-77
2023/06/16 11:15:24;;;;;;;9.40;3.38;;;;;35.20;101339.00;;;;10225517;28;20644;-80
2023/06/16 11:20:26;;;;;;;5.45;3.00;;;;;35.50;101342.00;;;;10236943;28;20214;-79
2023/06/16 11:25:28;;;;;;;4.80;3.80;;;;;36.60;101333.00;;;;10237785;28;20205;-80
2023/06/16 11:30:31;;;;;;;5.97;3.25;;;;;37.10;101331.00;;;;10226040;28;20260;-73
2023/06/16 11:35:33;;;;;;;3.83;3.42;;;;;37.90;101341.00;;;;10233702;28;20895;-75
2023/06/16 11:40:35;;;;;;;6.78;3.75;;;;;38.20;101336.00;;;;10234185;28;20244;-73
2023/06/16 11:45:38;;;;;;;6.25;3.60;;;;;38.20;101342.00;;;;10231473;28;20209;-75
2023/06/16 11:50:40;;;;;;;3.55;3.10;;;;;38.20;101337.00;;;;10227877;28;20205;-75
2023/06/16 11:55:53;;;;;;;3.85;3.33;;;;;35.80;101337.00;;;;10232254;28;20272;-74
2023/06/16 12:00:59;;;;;;;4.53;3.33;;;;;33.50;101325.00;;;;10236227;28;20229;-73
2023/06/16 12:06:03;;;;;;;6.93;3.17;;;;;34.50;101320.00;;;;10234779;28;20268;-76
2023/06/16 12:11:08;;;;;;;5.03;3.30;;;;;34.20;101310.00;;;;10221707;28;20225;-74
2023/06/16 12:16:12;;;;;;;3.83;3.40;;;;;36.50;101306.00;;;;10239233;28;20231;-74
2023/06/16 12:21:19;;;;;;;5.70;3.70;;;;;37.40;101295.00;;;;10228376;28;20214;-73
2023/06/16 12:26:33;;;;;;;5.68;3.60;;;;;37.00;101304.00;;;;10227684;28;20206;-72
2023/06/16 12:31:35;;;;;;;3.95;3.65;;;;;37.80;101302.00;;;;10239072;28;20209;-71
2023/06/16 12:36:41;;;;;;;5.78;3.40;;;;;38.50;101306.00;;;;10229684;28;20888;-73
2023/06/16 12:42:05;;;;;;;4.28;3.63;;;;;37.20;101293.00;;;;10233573;28;20300;-75
2023/06/16 12:47:08;;;;;;;5.28;3.40;;;;;36.00;101290.00;;;;10230881;28;20189;-73
2023/06/16 12:52:13;;;;;;;6.95;3.25;;;;;35.60;101293.00;;;;10243340;28;20308;-73
2023/06/16 12:57:16;;;;;;;5.28;3.60;;;;;35.50;101293.00;;;;10230322;28;20233;-77
2023/06/16 13:02:19;;;;;;;3.92;3.53;;;;;36.10;101283.00;;;;10229685;28;20234;-75
2023/06/16 13:07:22;;;;;;;4.55;2.95;;;;;36.60;101282.00;;;;10237130;28;20201;-75
2023/06/16 13:12:24;;;;;;;3.20;2.90;;;;;36.70;101279.00;;;;10223583;28;20886;-82
2023/06/16 13:17:26;;;;;;;4.78;3.30;;;;;36.80;101273.00;;;;10251256;28;20189;-80
2023/06/16 13:22:30;;;;;;;5.40;3.33;;;;;36.00;101270.00;;;;10247914;28;20425;-76
2023/06/16 13:27:32;;;;;;;7.57;3.80;;;;;36.20;101260.00;;;;10241763;28;20201;-81
2023/06/16 13:32:35;;;;;;;4.30;2.97;;;;;35.70;101256.00;;;;10247766;28;20233;-79
2023/06/16 13:37:37;;;;;;;5.45;3.20;;;;;36.50;101257.00;;;;10229327;29;20207;-82
2023/06/16 13:42:39;;;;;;;3.88;3.08;;;;;37.10;101252.00;;;;10246012;28;20555;-79
2023/06/16 13:47:41;;;;;;;3.50;3.00;;;;;37.20;101254.00;;;;10241650;28;20715;-77
2023/06/16 13:52:43;;;;;;;8.52;3.15;;;;;37.20;101255.00;;;;10236461;28;20328;-76
2023/06/16 13:57:45;;;;;;;3.63;3.33;;;;;36.30;101249.00;;;;10225968;28;20205;-78
2023/06/16 14:02:47;;;;;;;6.75;3.33;;;;;35.90;101247.00;;;;10223146;28;20210;-80
2023/06/16 14:07:50;;;;;;;7.13;3.60;;;;;35.90;101238.00;;;;10252256;28;20202;-78
2023/06/16 14:12:52;;;;;;;4.65;3.25;;;;;35.70;101236.00;;;;10228010;28;20249;-76
2023/06/16 14:17:55;;;;;;;4.93;3.38;;;;;35.30;101230.00;;;;10234757;28;20204;-76
2023/06/16 14:22:57;;;;;;;4.38;3.00;;;;;34.60;101224.00;;;;10231599;28;20198;-76
2023/06/16 14:27:59;;;;;;;4.03;3.60;;;;;35.10;101224.00;;;;10233483;28;20233;-76
2023/06/16 14:33:01;;;;;;;4.78;3.40;;;;;34.60;101226.00;;;;10234758;28;20210;-77
2023/06/16 14:38:03;;;;;;;7.50;3.10;;;;;34.90;101221.00;;;;10234378;28;20237;-78
2023/06/16 14:43:06;;;;;;;3.40;3.05;;;;;35.20;101217.00;;;;10231854;28;20212;-82
2023/06/16 14:48:08;;;;;;;3.28;2.92;;;;;35.30;101210.00;;;;10234740;28;20739;-82
2023/06/16 14:53:10;;;;;;;6.50;3.00;;;;;35.40;101206.00;;;;10231494;28;20229;-74
2023/06/16 14:58:12;;;;;;;4.38;2.90;;;;;35.50;101208.00;;;;10239935;28;20285;-75
2023/06/16 15:03:14;;;;;;;6.95;3.20;;;;;36.30;101198.00;;;;10230459;28;20867;-75
2023/06/16 15:08:16;;;;;;;3.72;3.35;;;;;37.90;101199.00;;;;10229352;28;20202;-76
2023/06/16 15:13:18;;;;;;;5.28;3.00;;;;;38.30;101192.00;;;;10229327;28;20209;-75
2023/06/16 15:18:20;;;;;;;5.32;3.13;;;;;38.50;101191.00;;;;10228949;28;20240;-75
2023/06/16 15:23:22;;;;;;;6.45;3.20;;;;;39.40;101189.00;;;;10253735;28;20232;-78
2023/06/16 15:28:24;;;;;;;3.53;3.22;;;;;40.20;101191.00;;;;10230762;28;20225;-76
2023/06/16 15:33:32;;;;;;;5.80;3.50;;;;;39.80;101186.00;;;;10225024;28;20599;-76
2023/06/16 15:38:34;;;;;;;3.90;3.40;;;;;36.50;101194.00;;;;10242358;28;20284;-76
2023/06/16 15:43:36;;;;;;;4.13;3.08;;;;;35.80;101186.00;;;;10228134;28;20205;-77
2023/06/16 15:48:43;;;;;;;6.43;3.60;;;;;34.20;101182.00;;;;10233865;28;20671;-75
2023/06/16 15:53:45;;;;;;;3.58;3.28;;;;;33.30;101177.00;;;;10233152;28;20225;-76
2023/06/16 15:58:47;;;;;;;5.70;3.38;;;;;32.60;101168.00;;;;10239086;28;20205;-81
2023/06/16 16:03:50;;;;;;;3.75;3.17;;;;;32.20;101165.00;;;;10235363;28;20223;-79
2023/06/16 16:08:52;;;;;;;7.30;3.45;;;;;31.90;101164.00;;;;10238209;28;20351;-78
2023/06/16 16:13:54;;;;;;;3.58;3.28;;;;;31.50;101162.00;;;;10242923;28;20654;-78
2023/06/16 16:18:58;;;;;;;4.65;2.72;;;;;31.10;101154.00;;;;10244589;28;20205;-79
2023/06/16 16:24:00;;;;;;;6.05;3.72;;;;;30.40;101161.00;;;;10246309;28;20253;-81
2023/06/16 16:29:03;;;;;;;6.97;3.88;;;;;30.20;101148.00;;;;10257070;28;20643;-81
2023/06/16 16:34:05;;;;;;;5.35;3.47;;;;;29.40;101152.00;;;;10242886;28;20222;-75
2023/06/16 16:39:07;;;;;;;5.05;3.60;;;;;29.10;101137.00;;;;10236062;28;20197;-74
2023/06/16 16:44:09;;;;;;;6.03;4.10;;;;;29.30;101140.00;;;;10248558;28;20197;-76
2023/06/16 16:49:11;;;;;;;6.85;4.00;;;;;29.60;101140.00;;;;10244955;28;20240;-75
2023/06/16 16:54:13;;;;;;;5.55;4.07;;;;;29.80;101136.00;;;;10242741;28;20806;-74
2023/06/16 16:59:17;;;;;;;8.23;4.00;;;;;29.80;101133.00;;;;10243079;28;20224;-75
2023/06/16 17:04:22;;;;;;;5.32;4.10;;;;;29.70;101137.00;;;;10243169;28;20284;-75
2023/06/16 17:09:24;;;;;;;6.30;4.20;;;;;29.70;101136.00;;;;10243528;28;20204;-75
2023/06/16 17:14:26;;;;;;;5.93;4.45;;;;;29.60;101137.00;;;;10250351;28;20309;-77
2023/06/16 17:19:28;;;;;;;6.20;3.72;;;;;29.60;101134.00;;;;10244952;28;20214;-78
2023/06/16 17:24:32;;;;;;;5.88;4.32;;;;;29.30;101125.00;;;;10245385;28;20301;-79
2023/06/16 17:29:34;;;;;;;4.03;3.63;;;;;29.00;101135.00;;;;10239946;28;20668;-79
2023/06/16 17:34:36;;;;;;;6.80;3.83;;;;;28.90;101135.00;;;;10238239;28;20221;-79
2023/06/16 17:39:38;;;;;;;5.78;4.00;;;;;29.00;101139.00;;;;10240676;28;20223;-75
2023/06/16 17:44:40;;;;;;;7.28;4.15;;;;;28.70;101128.00;;;;10242026;28;20210;-76
2023/06/16 17:49:42;;;;;;;6.05;3.90;;;;;28.30;101130.00;;;;10246873;28;20731;-81
2023/06/16 17:54:44;;;;;;;8.43;4.60;;;;;28.10;101134.00;;;;10221122;28;20308;-75
2023/06/16 17:59:46;;;;;;;6.07;4.03;;;;;27.90;101136.00;;;;10241389;28;20208;-75
2023/06/16 18:04:48;;;;;;;5.85;3.67;;;;;27.60;101140.00;;;;10244214;28;20225;-84
2023/06/16 18:09:50;;;;;;;5.40;4.30;;;;;27.30;101139.00;;;;10233434;28;20210;-76
2023/06/16 18:14:53;;;;;;;4.25;3.85;;;;;27.20;101132.00;;;;10244423;28;20224;-76
2023/06/16 18:19:54;;;;;;;5.43;4.03;;;;;27.00;101132.00;;;;10244540;28;20209;-76
2023/06/16 18:24:56;;;;;;;5.30;3.78;;;;;26.80;101139.00;;;;10245100;28;20220;-75
2023/06/16 18:29:58;;;;;;;5.72;4.20;;;;;26.60;101132.00;;;;10231476;28;20848;-76
2023/06/16 18:35:01;;;;;;;7.13;4.25;;;;;26.40;101128.00;;;;10244360;28;20241;-74
2023/06/16 18:40:03;;;;;;;7.82;3.97;;;;;26.30;101132.00;;;;10239837;28;20205;-75
2023/06/16 18:45:06;;;;;;;5.22;3.63;;;;;26.20;101125.00;;;;10232091;28;20285;-75
2023/06/16 18:50:09;;;;;;;6.97;3.67;;;;;26.10;101128.00;;;;10236956;28;20887;-75
2023/06/16 18:55:12;;;;;;;7.05;3.63;;;;;26.00;101126.00;;;;10231207;28;20223;-75
2023/06/16 19:00:14;;;;;;;4.43;3.78;;;;;25.80;101132.00;;;;10245547;28;20197;-73
2023/06/16 19:05:17;;;;;;;4.45;4.00;;;;;25.60;101132.00;;;;10246501;28;20747;-75
2023/06/16 19:10:20;;;;;;;5.43;4.18;;;;;25.40;101129.00;;;;10243798;28;20289;-74
2023/06/16 19:15:23;;;;;;;10.25;3.75;;;;;25.20;101131.00;;;;10230968;28;20329;-75
2023/06/16 19:20:25;;;;;;;6.13;4.03;;;;;25.20;101129.00;;;;10238486;28;20210;-75
2023/06/16 19:25:27;;;;;;;5.95;3.85;;;;;24.90;101134.00;;;;10234538;28;20205;-75
2023/06/16 19:30:29;;;;;;;5.15;4.03;;;;;24.70;101136.00;;;;10235198;28;20833;-74
2023/06/16 19:35:31;;;;;;;8.88;4.22;;;;;24.50;101134.00;;;;10237079;28;20639;-74
2023/06/16 19:40:33;;;;;;;5.45;4.32;;;;;24.20;101141.00;;;;10238509;28;20681;-74
2023/06/16 19:45:36;;;;;;;4.43;4.03;;;;;24.00;101139.00;;;;10239353;28;20214;-73
2023/06/16 19:50:37;;;;;;;8.02;3.90;;;;;23.80;101154.00;;;;10242788;28;20206;-74
2023/06/16 19:55:40;;;;;;;5.93;4.18;;;;;23.50;101156.00;;;;10244783;28;20557;-74
2023/06/16 20:00:51;;;;;;;5.03;4.50;;;;;23.30;101160.00;;;;10235061;28;20198;-74
2023/06/16 20:05:53;;;;;;;5.13;3.67;;;;;23.10;101164.00;;;;10237653;28;20220;-73
2023/06/16 20:10:55;;;;;;;5.90;3.95;;;;;22.90;101165.00;;;;10242910;28;20194;-73
2023/06/16 20:15:57;;;;;;;7.63;3.90;;;;;22.70;101172.00;;;;10236438;28;20292;-80
2023/06/16 20:21:00;;;;;;;4.85;3.90;;;;;22.70;101180.00;;;;10237875;28;20209;-77
2023/06/16 20:26:02;;;;;;;4.90;3.88;;;;;22.60;101171.00;;;;10230288;28;20221;-78
2023/06/16 20:31:04;;;;;;;5.45;3.58;;;;;22.50;101184.00;;;;10241928;28;20627;-79
2023/06/16 20:36:07;;;;;;;5.20;4.00;;;;;22.40;101180.00;;;;10247834;28;20731;-79
2023/06/16 20:41:09;;;;;;;7.15;4.15;;;;;22.30;101181.00;;;;10236607;28;20244;-78
2023/06/16 20:46:11;;;;;;;10.18;4.43;;;;;22.10;101194.00;;;;10235272;28;20221;-80
2023/06/16 20:51:13;;;;;;;9.45;4.80;;;;;22.00;101193.00;;;;10243099;28;20216;-78
2023/06/16 20:56:15;;;;;;;4.47;3.85;;;;;21.90;101186.00;;;;10237751;28;20205;-74
2023/06/16 21:01:18;;;;;;;4.63;3.55;;;;;21.70;101193.00;;;;10237412;28;20233;-74
2023/06/16 21:06:21;;;;;;;6.97;4.00;;;;;21.60;101191.00;;;;10241129;28;20732;-74
2023/06/16 21:11:25;;;;;;;6.07;3.88;;;;;21.50;101202.00;;;;10239412;28;20194;-74
2023/06/16 21:16:30;;;;;;;7.00;3.75;;;;;21.30;101201.00;;;;10239925;28;20565;-75
2023/06/16 21:21:33;;;;;;;4.05;3.67;;;;;21.20;101193.00;;;;10237871;28;20205;-74
2023/06/16 21:26:35;;;;;;;11.00;3.90;;;;;21.10;101198.00;;;;10236621;28;20215;-74
2023/06/16 21:31:37;;;;;;;9.93;4.30;;;;;21.00;101199.00;;;;10240899;28;20205;-75
2023/06/16 21:36:40;;;;;;;6.53;4.32;;;;;20.90;101201.00;;;;10239364;28;20210;-74
2023/06/16 21:41:42;;;;;;;4.47;3.90;;;;;20.80;101203.00;;;;10226763;28;20206;-76
2023/06/16 21:46:45;;;;;;;9.05;4.00;;;;;20.70;101203.00;;;;10232521;28;20308;-74
2023/06/16 21:51:48;;;;;;;4.97;4.07;;;;;20.50;101205.00;;;;10230938;28;20612;-74
2023/06/16 21:56:49;;;;;;;8.32;3.85;;;;;20.40;101201.00;;;;10231217;28;20201;-78
2023/06/16 22:01:51;;;;;;;4.72;3.95;;;;;20.20;101208.00;;;;10245899;28;20697;-78
2023/06/16 22:06:54;;;;;;;8.02;3.97;;;;;20.10;101211.00;;;;10234719;28;20245;-74
2023/06/16 22:11:56;;;;;;;7.68;3.95;;;;;20.00;101214.00;;;;10231358;28;20639;-73
2023/06/16 22:16:59;;;;;;;5.40;3.97;;;;;19.80;101206.00;;;;10236336;28;20309;-74
2023/06/16 22:22:02;;;;;;;8.02;4.25;;;;;19.70;101196.00;;;;10240847;28;20767;-74
2023/06/16 22:27:04;;;;;;;8.25;4.13;;;;;19.60;101199.00;;;;10242697;28;20217;-74
2023/06/16 22:32:22;;;;;;;5.30;4.40;;;;;19.40;101200.00;;;;10242304;28;20193;-74
2023/06/16 22:37:24;;;;;;;7.93;4.85;;;;;19.30;101204.00;;;;10247998;28;20213;-76
2023/06/16 22:42:26;;;;;;;7.40;4.57;;;;;19.00;101184.00;;;;10236295;28;20296;-73
2023/06/16 22:47:29;;;;;;;6.15;4.10;;;;;18.90;101188.00;;;;10236446;28;20263;-73
2023/06/16 22:52:33;;;;;;;11.07;4.47;;;;;18.80;101183.00;;;;10236577;28;20430;-73
2023/06/16 22:57:36;;;;;;;8.43;4.65;;;;;18.70;101195.00;;;;10235897;28;20236;-76
2023/06/16 23:02:38;;;;;;;8.02;4.13;;;;;18.60;101186.00;;;;10243040;28;20229;-75
2023/06/16 23:07:42;;;;;;;6.63;4.40;;;;;18.50;101196.00;;;;10229117;28;20213;-74
2023/06/16 23:12:44;;;;;;;6.30;4.55;;;;;18.30;101177.00;;;;10250041;28;20213;-74
2023/06/16 23:17:46;;;;;;;6.03;4.35;;;;;18.20;101174.00;;;;10237876;28;20269;-74
2023/06/16 23:22:49;;;;;;;6.72;4.53;;;;;18.10;101174.00;;;;10241926;28;20202;-74
2023/06/16 23:27:54;;;;;;;8.50;4.57;;;;;17.90;101168.00;;;;10214776;28;20588;-74
2023/06/16 23:32:57;;;;;;;9.05;4.47;;;;;17.70;101161.00;;;;10239937;28;20202;-75
2023/06/16 23:38:00;;;;;;;8.48;4.90;;;;;17.50;101153.00;;;;10237496;28;20214;-78
2023/06/16 23:43:04;;;;;;;6.60;4.63;;;;;17.40;101150.00;;;;10245011;28;20288;-78
2023/06/16 23:48:10;;;;;;;8.23;4.53;;;;;17.30;101159.00;;;;10232636;28;20229;-81
2023/06/16 23:53:12;;;;;;;7.18;4.78;;;;;17.30;101150.00;;;;10232587;28;20189;-74
2023/06/16 23:58:14;;;;;;;6.15;4.03;;;;;17.20;101151.00;;;;10234902;28;20795;-75
